sensor_id;sensor_type;location;lat;lon;timestamp;P1;durP1;ratioP1;P2;durP2;ratioP2
31112;SDS011;17763;48.730;9.136;2023-02-03T00:00:28;1.15;;;1.10;;
31112;SDS011;17763;48.730;9.136;2023-02-03T00:02:55;2.92;;;1.35;;
31112;SDS011;17763;48.730;9.136;2023-02-03T00:05:26;1.52;;;1.20;;
31112;SDS011;17763;48.730;9.136;2023-02-03T00:08:13;2.35;;;1.10;;
31112;SDS011;17763;48.730;9.136;2023-02-03T00:10:40;1.23;;;1.10;;
31112;SDS011;17763;48.730;9.136;2023-02-03T00:13:06;1.90;;;1.10;;
31112;SDS011;17763;48.730;9.136;2023-02-03T00:15:34;2.15;;;1.58;;
31112;SDS011;17763;48.730;9.136;2023-02-03T00:18:00;1.33;;;1.17;;
31112;SDS011;17763;48.730;9.136;2023-02-03T00:20:26;2.60;;;0.90;;
31112;SDS011;17763;48.730;9.136;2023-02-03T00:22:52;0.82;;;0.82;;
31112;SDS011;17763;48.730;9.136;2023-02-03T00:25:18;1.27;;;1.15;;
31112;SDS011;17763;48.730;9.136;2023-02-03T00:27:45;1.33;;;0.80;;
31112;SDS011;17763;48.730;9.136;2023-02-03T00:30:13;1.92;;;1.35;;
31112;SDS011;17763;48.730;9.136;2023-02-03T00:32:41;1.00;;;0.90;;
31112;SDS011;17763;48.730;9.136;2023-02-03T00:35:06;1.00;;;0.93;;
31112;SDS011;17763;48.730;9.136;2023-02-03T00:37:32;0.80;;;0.80;;
31112;SDS011;17763;48.730;9.136;2023-02-03T00:40:00;0.98;;;0.80;;
31112;SDS011;17763;48.730;9.136;2023-02-03T00:42:26;1.00;;;0.90;;
31112;SDS011;17763;48.730;9.136;2023-02-03T00:44:52;0.80;;;0.80;;
31112;SDS011;17763;48.730;9.136;2023-02-03T00:47:20;1.02;;;0.90;;
31112;SDS011;17763;48.730;9.136;2023-02-03T00:49:45;1.52;;;0.77;;
31112;SDS011;17763;48.730;9.136;2023-02-03T00:52:11;0.82;;;0.73;;
31112;SDS011;17763;48.730;9.136;2023-02-03T00:54:39;4.97;;;0.98;;
31112;SDS011;17763;48.730;9.136;2023-02-03T00:57:05;1.35;;;0.85;;
31112;SDS011;17763;48.730;9.136;2023-02-03T00:59:30;0.73;;;0.73;;
31112;SDS011;17763;48.730;9.136;2023-02-03T01:01:58;0.68;;;0.68;;
31112;SDS011;17763;48.730;9.136;2023-02-03T01:04:24;3.05;;;1.00;;
31112;SDS011;17763;48.730;9.136;2023-02-03T01:06:52;1.90;;;1.10;;
31112;SDS011;17763;48.730;9.136;2023-02-03T01:09:24;0.80;;;0.80;;
31112;SDS011;17763;48.730;9.136;2023-02-03T01:11:53;1.05;;;0.95;;
31112;SDS011;17763;48.730;9.136;2023-02-03T01:14:21;1.23;;;1.00;;
31112;SDS011;17763;48.730;9.136;2023-02-03T01:16:46;0.90;;;0.90;;
31112;SDS011;17763;48.730;9.136;2023-02-03T01:19:12;1.30;;;1.20;;
31112;SDS011;17763;48.730;9.136;2023-02-03T01:21:38;1.17;;;1.10;;
31112;SDS011;17763;48.730;9.136;2023-02-03T01:24:10;1.58;;;1.40;;
31112;SDS011;17763;48.730;9.136;2023-02-03T01:26:35;1.10;;;1.10;;
31112;SDS011;17763;48.730;9.136;2023-02-03T01:29:01;2.35;;;0.95;;
31112;SDS011;17763;48.730;9.136;2023-02-03T01:31:30;1.60;;;1.50;;
31112;SDS011;17763;48.730;9.136;2023-02-03T01:34:01;1.35;;;1.23;;
31112;SDS011;17763;48.730;9.136;2023-02-03T01:36:30;1.45;;;1.05;;
31112;SDS011;17763;48.730;9.136;2023-02-03T01:38:57;1.65;;;1.50;;
31112;SDS011;17763;48.730;9.136;2023-02-03T01:41:25;1.20;;;1.10;;
31112;SDS011;17763;48.730;9.136;2023-02-03T01:44:30;1.77;;;1.55;;
31112;SDS011;17763;48.730;9.136;2023-02-03T01:47:05;4.07;;;1.40;;
31112;SDS011;17763;48.730;9.136;2023-02-03T01:50:00;1.33;;;1.30;;
31112;SDS011;17763;48.730;9.136;2023-02-03T01:52:36;2.85;;;1.40;;
31112;SDS011;17763;48.730;9.136;2023-02-03T01:55:09;1.63;;;1.52;;
31112;SDS011;17763;48.730;9.136;2023-02-03T01:57:41;2.40;;;1.42;;
31112;SDS011;17763;48.730;9.136;2023-02-03T02:00:12;1.73;;;1.63;;
31112;SDS011;17763;48.730;9.136;2023-02-03T02:02:39;2.00;;;1.48;;
31112;SDS011;17763;48.730;9.136;2023-02-03T02:05:15;4.05;;;1.60;;
31112;SDS011;17763;48.730;9.136;2023-02-03T02:07:59;3.08;;;1.70;;
31112;SDS011;17763;48.730;9.136;2023-02-03T02:10:27;2.17;;;1.92;;
31112;SDS011;17763;48.730;9.136;2023-02-03T02:12:56;2.03;;;1.30;;
31112;SDS011;17763;48.730;9.136;2023-02-03T02:15:27;3.03;;;1.90;;
31112;SDS011;17763;48.730;9.136;2023-02-03T02:26:02;2.00;;;1.80;;
31112;SDS011;17763;48.730;9.136;2023-02-03T02:32:26;2.63;;;1.80;;
31112;SDS011;17763;48.730;9.136;2023-02-03T02:35:00;3.53;;;1.93;;
31112;SDS011;17763;48.730;9.136;2023-02-03T02:40:32;3.83;;;2.40;;
31112;SDS011;17763;48.730;9.136;2023-02-03T02:43:08;3.00;;;1.65;;
31112;SDS011;17763;48.730;9.136;2023-02-03T02:50:48;1.75;;;1.60;;
31112;SDS011;17763;48.730;9.136;2023-02-03T02:53:18;2.13;;;1.92;;
31112;SDS011;17763;48.730;9.136;2023-02-03T02:55:46;4.75;;;2.35;;
31112;SDS011;17763;48.730;9.136;2023-02-03T02:58:13;1.92;;;1.80;;
31112;SDS011;17763;48.730;9.136;2023-02-03T03:00:41;2.17;;;1.38;;
31112;SDS011;17763;48.730;9.136;2023-02-03T03:03:21;1.80;;;1.67;;
31112;SDS011;17763;48.730;9.136;2023-02-03T03:05:55;1.85;;;1.60;;
31112;SDS011;17763;48.730;9.136;2023-02-03T03:11:27;1.40;;;1.30;;
31112;SDS011;17763;48.730;9.136;2023-02-03T03:13:57;1.40;;;1.30;;
31112;SDS011;17763;48.730;9.136;2023-02-03T03:16:25;1.52;;;1.27;;
31112;SDS011;17763;48.730;9.136;2023-02-03T03:19:27;1.50;;;1.38;;
31112;SDS011;17763;48.730;9.136;2023-02-03T03:21:49;1.38;;;1.10;;
31112;SDS011;17763;48.730;9.136;2023-02-03T03:24:20;1.67;;;1.58;;
31112;SDS011;17763;48.730;9.136;2023-02-03T03:27:01;1.40;;;1.30;;
31112;SDS011;17763;48.730;9.136;2023-02-03T03:32:14;1.27;;;1.00;;
31112;SDS011;17763;48.730;9.136;2023-02-03T03:34:40;1.30;;;1.20;;
31112;SDS011;17763;48.730;9.136;2023-02-03T03:47:53;1.42;;;0.77;;
31112;SDS011;17763;48.730;9.136;2023-02-03T03:50:32;1.52;;;1.10;;
31112;SDS011;17763;48.730;9.136;2023-02-03T03:53:01;1.42;;;1.33;;
31112;SDS011;17763;48.730;9.136;2023-02-03T03:55:29;2.13;;;1.80;;
31112;SDS011;17763;48.730;9.136;2023-02-03T03:58:11;1.08;;;0.98;;
31112;SDS011;17763;48.730;9.136;2023-02-03T04:00:43;1.13;;;1.13;;
31112;SDS011;17763;48.730;9.136;2023-02-03T04:03:14;1.27;;;1.20;;
31112;SDS011;17763;48.730;9.136;2023-02-03T04:05:43;1.13;;;1.10;;
31112;SDS011;17763;48.730;9.136;2023-02-03T04:08:08;1.60;;;1.20;;
31112;SDS011;17763;48.730;9.136;2023-02-03T04:10:35;2.25;;;1.25;;
31112;SDS011;17763;48.730;9.136;2023-02-03T04:13:05;3.30;;;1.40;;
31112;SDS011;17763;48.730;9.136;2023-02-03T04:15:33;1.20;;;1.10;;
31112;SDS011;17763;48.730;9.136;2023-02-03T04:18:03;1.80;;;1.10;;
31112;SDS011;17763;48.730;9.136;2023-02-03T04:20:30;1.08;;;1.00;;
31112;SDS011;17763;48.730;9.136;2023-02-03T04:22:56;0.93;;;0.88;;
31112;SDS011;17763;48.730;9.136;2023-02-03T04:25:25;1.48;;;0.90;;
31112;SDS011;17763;48.730;9.136;2023-02-03T04:27:51;1.50;;;0.82;;
31112;SDS011;17763;48.730;9.136;2023-02-03T04:30:16;1.38;;;0.85;;
31112;SDS011;17763;48.730;9.136;2023-02-03T04:32:44;1.80;;;1.02;;
31112;SDS011;17763;48.730;9.136;2023-02-03T04:35:13;2.22;;;0.98;;
31112;SDS011;17763;48.730;9.136;2023-02-03T04:37:39;1.90;;;0.80;;
31112;SDS011;17763;48.730;9.136;2023-02-03T04:40:05;1.00;;;1.00;;
31112;SDS011;17763;48.730;9.136;2023-02-03T04:42:32;2.53;;;1.10;;
31112;SDS011;17763;48.730;9.136;2023-02-03T04:44:57;3.33;;;1.10;;
31112;SDS011;17763;48.730;9.136;2023-02-03T04:47:23;1.77;;;1.20;;
31112;SDS011;17763;48.730;9.136;2023-02-03T04:49:51;0.90;;;0.90;;
31112;SDS011;17763;48.730;9.136;2023-02-03T04:52:17;2.97;;;1.00;;
31112;SDS011;17763;48.730;9.136;2023-02-03T04:54:42;1.02;;;1.02;;
31112;SDS011;17763;48.730;9.136;2023-02-03T04:57:08;2.15;;;1.23;;
31112;SDS011;17763;48.730;9.136;2023-02-03T04:59:34;1.38;;;1.00;;
31112;SDS011;17763;48.730;9.136;2023-02-03T05:02:02;0.60;;;0.60;;
31112;SDS011;17763;48.730;9.136;2023-02-03T05:04:29;0.80;;;0.80;;
31112;SDS011;17763;48.730;9.136;2023-02-03T05:06:55;1.33;;;1.00;;
31112;SDS011;17763;48.730;9.136;2023-02-03T05:09:21;1.40;;;1.10;;
31112;SDS011;17763;48.730;9.136;2023-02-03T05:11:52;1.20;;;1.10;;
31112;SDS011;17763;48.730;9.136;2023-02-03T05:14:18;1.27;;;1.00;;
31112;SDS011;17763;48.730;9.136;2023-02-03T05:16:44;3.97;;;0.95;;
31112;SDS011;17763;48.730;9.136;2023-02-03T05:19:10;1.35;;;1.10;;
31112;SDS011;17763;48.730;9.136;2023-02-03T05:21:36;0.90;;;0.90;;
31112;SDS011;17763;48.730;9.136;2023-02-03T05:24:04;1.20;;;1.10;;
31112;SDS011;17763;48.730;9.136;2023-02-03T05:26:32;0.80;;;0.80;;
31112;SDS011;17763;48.730;9.136;2023-02-03T05:28:58;2.28;;;1.10;;
31112;SDS011;17763;48.730;9.136;2023-02-03T05:31:29;1.35;;;1.23;;
31112;SDS011;17763;48.730;9.136;2023-02-03T05:33:57;3.70;;;0.90;;
31112;SDS011;17763;48.730;9.136;2023-02-03T05:36:23;0.90;;;0.90;;
31112;SDS011;17763;48.730;9.136;2023-02-03T05:38:48;1.30;;;0.90;;
31112;SDS011;17763;48.730;9.136;2023-02-03T05:41:14;1.27;;;0.95;;
31112;SDS011;17763;48.730;9.136;2023-02-03T05:43:59;2.35;;;1.60;;
31112;SDS011;17763;48.730;9.136;2023-02-03T05:46:26;2.35;;;1.20;;
31112;SDS011;17763;48.730;9.136;2023-02-03T05:48:52;1.65;;;1.20;;
31112;SDS011;17763;48.730;9.136;2023-02-03T05:51:18;1.17;;;1.00;;
31112;SDS011;17763;48.730;9.136;2023-02-03T05:53:46;1.73;;;1.10;;
31112;SDS011;17763;48.730;9.136;2023-02-03T05:56:14;1.98;;;1.15;;
31112;SDS011;17763;48.730;9.136;2023-02-03T05:58:39;1.48;;;0.93;;
31112;SDS011;17763;48.730;9.136;2023-02-03T06:01:05;1.90;;;0.90;;
31112;SDS011;17763;48.730;9.136;2023-02-03T06:03:31;0.98;;;0.90;;
31112;SDS011;17763;48.730;9.136;2023-02-03T06:05:57;1.83;;;1.20;;
31112;SDS011;17763;48.730;9.136;2023-02-03T06:08:23;0.90;;;0.90;;
31112;SDS011;17763;48.730;9.136;2023-02-03T06:10:55;1.85;;;0.95;;
31112;SDS011;17763;48.730;9.136;2023-02-03T06:13:24;1.52;;;1.38;;
31112;SDS011;17763;48.730;9.136;2023-02-03T06:15:50;1.00;;;1.00;;
31112;SDS011;17763;48.730;9.136;2023-02-03T06:18:16;1.52;;;1.20;;
31112;SDS011;17763;48.730;9.136;2023-02-03T06:20:42;1.33;;;1.25;;
31112;SDS011;17763;48.730;9.136;2023-02-03T06:23:07;2.08;;;1.17;;
31112;SDS011;17763;48.730;9.136;2023-02-03T06:25:33;1.20;;;1.10;;
31112;SDS011;17763;48.730;9.136;2023-02-03T06:27:59;2.55;;;1.52;;
31112;SDS011;17763;48.730;9.136;2023-02-03T06:30:25;1.05;;;0.90;;
31112;SDS011;17763;48.730;9.136;2023-02-03T06:32:55;0.88;;;0.88;;
31112;SDS011;17763;48.730;9.136;2023-02-03T06:35:23;1.10;;;0.98;;
31112;SDS011;17763;48.730;9.136;2023-02-03T06:37:49;0.88;;;0.80;;
31112;SDS011;17763;48.730;9.136;2023-02-03T06:40:14;1.00;;;1.00;;
31112;SDS011;17763;48.730;9.136;2023-02-03T06:42:43;1.02;;;1.00;;
31112;SDS011;17763;48.730;9.136;2023-02-03T06:45:13;0.70;;;0.70;;
31112;SDS011;17763;48.730;9.136;2023-02-03T06:47:42;1.75;;;1.00;;
31112;SDS011;17763;48.730;9.136;2023-02-03T06:50:10;2.53;;;0.98;;
31112;SDS011;17763;48.730;9.136;2023-02-03T06:52:37;0.90;;;0.90;;
31112;SDS011;17763;48.730;9.136;2023-02-03T06:55:04;1.50;;;1.10;;
31112;SDS011;17763;48.730;9.136;2023-02-03T06:57:30;1.67;;;1.35;;
31112;SDS011;17763;48.730;9.136;2023-02-03T06:59:59;2.97;;;1.05;;
31112;SDS011;17763;48.730;9.136;2023-02-03T07:02:26;5.35;;;1.27;;
31112;SDS011;17763;48.730;9.136;2023-02-03T07:04:52;3.35;;;2.17;;
31112;SDS011;17763;48.730;9.136;2023-02-03T07:07:35;3.63;;;1.65;;
31112;SDS011;17763;48.730;9.136;2023-02-03T07:10:03;2.15;;;1.20;;
31112;SDS011;17763;48.730;9.136;2023-02-03T07:12:32;1.20;;;1.10;;
31112;SDS011;17763;48.730;9.136;2023-02-03T07:14:57;0.90;;;0.90;;
31112;SDS011;17763;48.730;9.136;2023-02-03T07:17:23;1.10;;;1.00;;
31112;SDS011;17763;48.730;9.136;2023-02-03T07:19:51;1.83;;;1.25;;
31112;SDS011;17763;48.730;9.136;2023-02-03T07:22:22;3.03;;;1.20;;
31112;SDS011;17763;48.730;9.136;2023-02-03T07:24:48;1.73;;;1.20;;
31112;SDS011;17763;48.730;9.136;2023-02-03T07:27:13;0.90;;;0.90;;
31112;SDS011;17763;48.730;9.136;2023-02-03T07:29:44;2.95;;;1.30;;
31112;SDS011;17763;48.730;9.136;2023-02-03T07:32:09;1.30;;;1.20;;
31112;SDS011;17763;48.730;9.136;2023-02-03T07:34:35;1.50;;;1.40;;
31112;SDS011;17763;48.730;9.136;2023-02-03T07:37:03;1.75;;;1.42;;
31112;SDS011;17763;48.730;9.136;2023-02-03T07:39:29;1.98;;;1.42;;
31112;SDS011;17763;48.730;9.136;2023-02-03T07:41:57;2.38;;;1.40;;
31112;SDS011;17763;48.730;9.136;2023-02-03T07:44:23;1.73;;;1.60;;
31112;SDS011;17763;48.730;9.136;2023-02-03T07:46:54;3.55;;;1.55;;
31112;SDS011;17763;48.730;9.136;2023-02-03T07:49:19;2.00;;;1.80;;
31112;SDS011;17763;48.730;9.136;2023-02-03T07:51:45;2.63;;;1.90;;
31112;SDS011;17763;48.730;9.136;2023-02-03T07:54:11;2.15;;;1.70;;
31112;SDS011;17763;48.730;9.136;2023-02-03T07:56:39;3.97;;;1.67;;
31112;SDS011;17763;48.730;9.136;2023-02-03T07:59:08;3.53;;;2.13;;
31112;SDS011;17763;48.730;9.136;2023-02-03T08:01:36;3.25;;;2.25;;
31112;SDS011;17763;48.730;9.136;2023-02-03T08:04:02;2.50;;;2.10;;
31112;SDS011;17763;48.730;9.136;2023-02-03T08:06:29;1.85;;;1.75;;
31112;SDS011;17763;48.730;9.136;2023-02-03T08:08:57;2.35;;;2.08;;
31112;SDS011;17763;48.730;9.136;2023-02-03T08:11:25;3.13;;;2.17;;
31112;SDS011;17763;48.730;9.136;2023-02-03T08:13:54;3.67;;;2.38;;
31112;SDS011;17763;48.730;9.136;2023-02-03T08:16:19;2.78;;;2.55;;
31112;SDS011;17763;48.730;9.136;2023-02-03T08:18:45;4.05;;;2.42;;
31112;SDS011;17763;48.730;9.136;2023-02-03T08:21:11;3.92;;;2.40;;
31112;SDS011;17763;48.730;9.136;2023-02-03T08:23:42;2.70;;;2.50;;
31112;SDS011;17763;48.730;9.136;2023-02-03T08:26:08;4.10;;;2.30;;
31112;SDS011;17763;48.730;9.136;2023-02-03T08:28:33;3.63;;;2.20;;
31112;SDS011;17763;48.730;9.136;2023-02-03T08:30:59;2.90;;;2.42;;
31112;SDS011;17763;48.730;9.136;2023-02-03T08:33:33;3.88;;;2.10;;
31112;SDS011;17763;48.730;9.136;2023-02-03T08:35:58;2.55;;;2.13;;
31112;SDS011;17763;48.730;9.136;2023-02-03T08:38:25;2.92;;;1.92;;
31112;SDS011;17763;48.730;9.136;2023-02-03T08:40:53;2.85;;;2.08;;
31112;SDS011;17763;48.730;9.136;2023-02-03T08:43:18;3.95;;;3.00;;
31112;SDS011;17763;48.730;9.136;2023-02-03T08:45:44;4.25;;;2.00;;
31112;SDS011;17763;48.730;9.136;2023-02-03T08:48:12;4.72;;;2.20;;
31112;SDS011;17763;48.730;9.136;2023-02-03T08:50:42;2.55;;;2.00;;
31112;SDS011;17763;48.730;9.136;2023-02-03T08:53:15;5.88;;;2.15;;
31112;SDS011;17763;48.730;9.136;2023-02-03T08:55:41;3.10;;;1.98;;
31112;SDS011;17763;48.730;9.136;2023-02-03T08:58:09;2.92;;;2.20;;
31112;SDS011;17763;48.730;9.136;2023-02-03T09:00:39;3.85;;;2.30;;
31112;SDS011;17763;48.730;9.136;2023-02-03T09:03:06;2.20;;;2.10;;
31112;SDS011;17763;48.730;9.136;2023-02-03T09:05:32;2.83;;;2.20;;
31112;SDS011;17763;48.730;9.136;2023-02-03T09:07:58;4.57;;;2.42;;
31112;SDS011;17763;48.730;9.136;2023-02-03T09:10:24;2.22;;;2.03;;
31112;SDS011;17763;48.730;9.136;2023-02-03T09:12:50;2.78;;;2.15;;
31112;SDS011;17763;48.730;9.136;2023-02-03T09:15:18;4.82;;;2.60;;
31112;SDS011;17763;48.730;9.136;2023-02-03T09:17:44;2.00;;;1.90;;
31112;SDS011;17763;48.730;9.136;2023-02-03T09:20:10;2.00;;;1.90;;
31112;SDS011;17763;48.730;9.136;2023-02-03T09:22:39;2.33;;;1.90;;
31112;SDS011;17763;48.730;9.136;2023-02-03T09:25:05;3.30;;;1.77;;
31112;SDS011;17763;48.730;9.136;2023-02-03T09:27:31;2.10;;;1.70;;
31112;SDS011;17763;48.730;9.136;2023-02-03T09:29:57;1.80;;;1.70;;
31112;SDS011;17763;48.730;9.136;2023-02-03T09:32:23;5.38;;;1.45;;
31112;SDS011;17763;48.730;9.136;2023-02-03T09:34:49;2.40;;;1.65;;
31112;SDS011;17763;48.730;9.136;2023-02-03T09:37:14;3.97;;;1.60;;
31112;SDS011;17763;48.730;9.136;2023-02-03T09:39:40;2.97;;;1.85;;
31112;SDS011;17763;48.730;9.136;2023-02-03T09:47:23;3.10;;;1.60;;
31112;SDS011;17763;48.730;9.136;2023-02-03T09:49:52;2.03;;;1.63;;
31112;SDS011;17763;48.730;9.136;2023-02-03T09:52:25;2.40;;;1.55;;
31112;SDS011;17763;48.730;9.136;2023-02-03T09:55:06;1.65;;;1.40;;
31112;SDS011;17763;48.730;9.136;2023-02-03T09:57:39;3.33;;;1.42;;
31112;SDS011;17763;48.730;9.136;2023-02-03T10:00:13;4.25;;;1.63;;
31112;SDS011;17763;48.730;9.136;2023-02-03T10:02:51;1.70;;;1.60;;
31112;SDS011;17763;48.730;9.136;2023-02-03T10:05:22;1.65;;;1.45;;
31112;SDS011;17763;48.730;9.136;2023-02-03T10:13:11;2.83;;;1.73;;
31112;SDS011;17763;48.730;9.136;2023-02-03T10:18:32;1.50;;;1.40;;
31112;SDS011;17763;48.730;9.136;2023-02-03T10:21:15;1.20;;;1.08;;
31112;SDS011;17763;48.730;9.136;2023-02-03T10:23:54;4.05;;;2.13;;
31112;SDS011;17763;48.730;9.136;2023-02-03T10:26:24;2.25;;;1.27;;
31112;SDS011;17763;48.730;9.136;2023-02-03T10:29:05;2.53;;;1.33;;
31112;SDS011;17763;48.730;9.136;2023-02-03T10:31:42;1.30;;;1.20;;
31112;SDS011;17763;48.730;9.136;2023-02-03T10:34:12;1.10;;;1.10;;
31112;SDS011;17763;48.730;9.136;2023-02-03T10:41:56;1.95;;;1.20;;
31112;SDS011;17763;48.730;9.136;2023-02-03T10:44:29;1.55;;;1.38;;
31112;SDS011;17763;48.730;9.136;2023-02-03T10:49:58;2.28;;;1.45;;
31112;SDS011;17763;48.730;9.136;2023-02-03T10:52:31;2.35;;;1.15;;
31112;SDS011;17763;48.730;9.136;2023-02-03T10:55:06;2.25;;;1.27;;
31112;SDS011;17763;48.730;9.136;2023-02-03T10:57:54;1.70;;;1.60;;
31112;SDS011;17763;48.730;9.136;2023-02-03T11:00:21;1.50;;;1.40;;
31112;SDS011;17763;48.730;9.136;2023-02-03T11:05:25;3.20;;;1.55;;
31112;SDS011;17763;48.730;9.136;2023-02-03T11:07:54;2.70;;;1.30;;
31112;SDS011;17763;48.730;9.136;2023-02-03T11:26:50;1.52;;;1.35;;
31112;SDS011;17763;48.730;9.136;2023-02-03T11:29:29;2.05;;;1.10;;
31112;SDS011;17763;48.730;9.136;2023-02-03T11:32:02;1.45;;;0.90;;
31112;SDS011;17763;48.730;9.136;2023-02-03T11:34:39;0.85;;;0.85;;
31112;SDS011;17763;48.730;9.136;2023-02-03T11:42:35;1.08;;;0.88;;
31112;SDS011;17763;48.730;9.136;2023-02-03T11:45:12;1.23;;;1.13;;
31112;SDS011;17763;48.730;9.136;2023-02-03T11:47:55;1.23;;;0.80;;
31112;SDS011;17763;48.730;9.136;2023-02-03T11:50:40;1.25;;;0.95;;
31112;SDS011;17763;48.730;9.136;2023-02-03T11:55:53;0.88;;;0.88;;
31112;SDS011;17763;48.730;9.136;2023-02-03T11:58:31;0.70;;;0.70;;
31112;SDS011;17763;48.730;9.136;2023-02-03T12:14:22;1.40;;;1.30;;
31112;SDS011;17763;48.730;9.136;2023-02-03T12:28:16;0.60;;;0.60;;
31112;SDS011;17763;48.730;9.136;2023-02-03T12:30:48;0.85;;;0.80;;
31112;SDS011;17763;48.730;9.136;2023-02-03T12:33:19;0.50;;;0.50;;
31112;SDS011;17763;48.730;9.136;2023-02-03T12:36:10;1.35;;;0.50;;
31112;SDS011;17763;48.730;9.136;2023-02-03T12:38:53;0.70;;;0.70;;
31112;SDS011;17763;48.730;9.136;2023-02-03T12:43:53;1.17;;;0.70;;
31112;SDS011;17763;48.730;9.136;2023-02-03T12:46:41;1.67;;;0.63;;
31112;SDS011;17763;48.730;9.136;2023-02-03T12:49:14;0.73;;;0.73;;
31112;SDS011;17763;48.730;9.136;2023-02-03T12:51:42;2.17;;;0.80;;
31112;SDS011;17763;48.730;9.136;2023-02-03T12:57:19;0.52;;;0.52;;
31112;SDS011;17763;48.730;9.136;2023-02-03T13:05:40;0.80;;;0.80;;
31112;SDS011;17763;48.730;9.136;2023-02-03T13:10:56;0.60;;;0.60;;
31112;SDS011;17763;48.730;9.136;2023-02-03T13:13:33;2.17;;;0.70;;
31112;SDS011;17763;48.730;9.136;2023-02-03T13:16:05;0.60;;;0.60;;
31112;SDS011;17763;48.730;9.136;2023-02-03T13:18:36;1.00;;;0.75;;
31112;SDS011;17763;48.730;9.136;2023-02-03T13:21:04;0.82;;;0.80;;
31112;SDS011;17763;48.730;9.136;2023-02-03T13:23:30;0.70;;;0.60;;
31112;SDS011;17763;48.730;9.136;2023-02-03T13:28:34;0.60;;;0.60;;
31112;SDS011;17763;48.730;9.136;2023-02-03T13:39:24;1.52;;;0.60;;
31112;SDS011;17763;48.730;9.136;2023-02-03T13:42:09;1.45;;;0.68;;
31112;SDS011;17763;48.730;9.136;2023-02-03T13:44:37;0.90;;;0.77;;
31112;SDS011;17763;48.730;9.136;2023-02-03T13:47:05;1.63;;;0.65;;
31112;SDS011;17763;48.730;9.136;2023-02-03T13:49:38;0.57;;;0.57;;
31112;SDS011;17763;48.730;9.136;2023-02-03T13:52:22;0.80;;;0.80;;
31112;SDS011;17763;48.730;9.136;2023-02-03T13:54:59;1.58;;;0.70;;
31112;SDS011;17763;48.730;9.136;2023-02-03T13:57:28;0.75;;;0.75;;
31112;SDS011;17763;48.730;9.136;2023-02-03T14:03:17;0.90;;;0.90;;
31112;SDS011;17763;48.730;9.136;2023-02-03T14:06:02;0.80;;;0.80;;
31112;SDS011;17763;48.730;9.136;2023-02-03T14:11:38;1.65;;;1.30;;
31112;SDS011;17763;48.730;9.136;2023-02-03T14:16:43;1.33;;;1.23;;
31112;SDS011;17763;48.730;9.136;2023-02-03T14:21:55;1.00;;;0.82;;
31112;SDS011;17763;48.730;9.136;2023-02-03T14:24:22;0.70;;;0.70;;
31112;SDS011;17763;48.730;9.136;2023-02-03T14:26:55;1.23;;;1.00;;
31112;SDS011;17763;48.730;9.136;2023-02-03T14:29:24;1.73;;;0.90;;
31112;SDS011;17763;48.730;9.136;2023-02-03T14:31:58;1.08;;;0.90;;
31112;SDS011;17763;48.730;9.136;2023-02-03T14:39:46;1.05;;;0.90;;
31112;SDS011;17763;48.730;9.136;2023-02-03T14:45:47;0.82;;;0.82;;
31112;SDS011;17763;48.730;9.136;2023-02-03T14:51:20;0.93;;;0.75;;
31112;SDS011;17763;48.730;9.136;2023-02-03T14:59:24;0.85;;;0.70;;
31112;SDS011;17763;48.730;9.136;2023-02-03T15:02:07;3.08;;;0.80;;
31112;SDS011;17763;48.730;9.136;2023-02-03T15:04:38;1.33;;;0.80;;
31112;SDS011;17763;48.730;9.136;2023-02-03T15:07:04;0.60;;;0.60;;
31112;SDS011;17763;48.730;9.136;2023-02-03T15:09:33;0.63;;;0.63;;
31112;SDS011;17763;48.730;9.136;2023-02-03T15:12:22;1.10;;;0.73;;
31112;SDS011;17763;48.730;9.136;2023-02-03T15:14:50;0.73;;;0.73;;
31112;SDS011;17763;48.730;9.136;2023-02-03T15:17:23;0.70;;;0.70;;
31112;SDS011;17763;48.730;9.136;2023-02-03T15:19:51;1.75;;;0.80;;
31112;SDS011;17763;48.730;9.136;2023-02-03T15:24:44;0.80;;;0.80;;
31112;SDS011;17763;48.730;9.136;2023-02-03T15:27:19;0.70;;;0.70;;
31112;SDS011;17763;48.730;9.136;2023-02-03T15:29:53;0.88;;;0.70;;
31112;SDS011;17763;48.730;9.136;2023-02-03T15:32:25;1.65;;;0.80;;
31112;SDS011;17763;48.730;9.136;2023-02-03T15:34:59;0.82;;;0.77;;
31112;SDS011;17763;48.730;9.136;2023-02-03T15:40:20;0.80;;;0.80;;
31112;SDS011;17763;48.730;9.136;2023-02-03T15:42:59;1.08;;;0.98;;
31112;SDS011;17763;48.730;9.136;2023-02-03T15:45:51;1.08;;;0.90;;
31112;SDS011;17763;48.730;9.136;2023-02-03T15:48:31;2.33;;;0.80;;
31112;SDS011;17763;48.730;9.136;2023-02-03T15:51:11;0.80;;;0.80;;
31112;SDS011;17763;48.730;9.136;2023-02-03T15:59:03;1.10;;;0.85;;
31112;SDS011;17763;48.730;9.136;2023-02-03T16:01:30;0.80;;;0.75;;
31112;SDS011;17763;48.730;9.136;2023-02-03T16:03:56;0.90;;;0.90;;
31112;SDS011;17763;48.730;9.136;2023-02-03T16:06:26;0.70;;;0.70;;
31112;SDS011;17763;48.730;9.136;2023-02-03T16:09:01;1.35;;;1.00;;
31112;SDS011;17763;48.730;9.136;2023-02-03T16:13:53;1.40;;;0.70;;
31112;SDS011;17763;48.730;9.136;2023-02-03T16:19:16;1.10;;;1.00;;
31112;SDS011;17763;48.730;9.136;2023-02-03T16:29:49;0.95;;;0.95;;
31112;SDS011;17763;48.730;9.136;2023-02-03T16:32:34;2.53;;;1.17;;
31112;SDS011;17763;48.730;9.136;2023-02-03T16:35:21;1.55;;;1.23;;
31112;SDS011;17763;48.730;9.136;2023-02-03T16:38:06;1.83;;;1.00;;
31112;SDS011;17763;48.730;9.136;2023-02-03T16:40:54;2.38;;;1.15;;
31112;SDS011;17763;48.730;9.136;2023-02-03T16:43:39;1.13;;;1.05;;
31112;SDS011;17763;48.730;9.136;2023-02-03T16:46:23;1.27;;;0.95;;
31112;SDS011;17763;48.730;9.136;2023-02-03T16:49:07;1.92;;;1.13;;
31112;SDS011;17763;48.730;9.136;2023-02-03T16:51:51;1.25;;;1.10;;
31112;SDS011;17763;48.730;9.136;2023-02-03T16:54:17;0.80;;;0.80;;
31112;SDS011;17763;48.730;9.136;2023-02-03T16:56:43;1.38;;;0.90;;
31112;SDS011;17763;48.730;9.136;2023-02-03T16:59:11;0.90;;;0.90;;
31112;SDS011;17763;48.730;9.136;2023-02-03T17:01:37;0.80;;;0.80;;
31112;SDS011;17763;48.730;9.136;2023-02-03T17:04:03;0.80;;;0.80;;
31112;SDS011;17763;48.730;9.136;2023-02-03T17:06:29;0.98;;;0.98;;
31112;SDS011;17763;48.730;9.136;2023-02-03T17:08:54;1.98;;;0.88;;
31112;SDS011;17763;48.730;9.136;2023-02-03T17:11:21;1.73;;;0.70;;
31112;SDS011;17763;48.730;9.136;2023-02-03T17:13:47;0.95;;;0.90;;
31112;SDS011;17763;48.730;9.136;2023-02-03T17:16:15;1.10;;;0.98;;
31112;SDS011;17763;48.730;9.136;2023-02-03T17:18:42;1.00;;;1.00;;
31112;SDS011;17763;48.730;9.136;2023-02-03T17:21:15;1.25;;;1.10;;
31112;SDS011;17763;48.730;9.136;2023-02-03T17:23:43;0.80;;;0.80;;
31112;SDS011;17763;48.730;9.136;2023-02-03T17:26:09;0.90;;;0.90;;
31112;SDS011;17763;48.730;9.136;2023-02-03T17:28:35;1.58;;;1.02;;
31112;SDS011;17763;48.730;9.136;2023-02-03T17:31:05;0.80;;;0.80;;
31112;SDS011;17763;48.730;9.136;2023-02-03T17:33:31;1.50;;;1.00;;
31112;SDS011;17763;48.730;9.136;2023-02-03T17:36:03;2.08;;;1.42;;
31112;SDS011;17763;48.730;9.136;2023-02-03T17:38:38;2.85;;;1.60;;
31112;SDS011;17763;48.730;9.136;2023-02-03T17:41:15;1.77;;;0.98;;
31112;SDS011;17763;48.730;9.136;2023-02-03T17:46:13;0.70;;;0.70;;
31112;SDS011;17763;48.730;9.136;2023-02-03T17:48:40;2.00;;;0.90;;
31112;SDS011;17763;48.730;9.136;2023-02-03T17:51:13;1.65;;;0.90;;
31112;SDS011;17763;48.730;9.136;2023-02-03T17:53:44;0.80;;;0.80;;
31112;SDS011;17763;48.730;9.136;2023-02-03T17:56:14;0.80;;;0.80;;
31112;SDS011;17763;48.730;9.136;2023-02-03T17:58:42;1.33;;;1.17;;
31112;SDS011;17763;48.730;9.136;2023-02-03T18:01:09;0.98;;;0.75;;
31112;SDS011;17763;48.730;9.136;2023-02-03T18:03:51;1.60;;;1.10;;
31112;SDS011;17763;48.730;9.136;2023-02-03T18:06:22;0.60;;;0.60;;
31112;SDS011;17763;48.730;9.136;2023-02-03T18:08:49;0.70;;;0.70;;
31112;SDS011;17763;48.730;9.136;2023-02-03T18:11:15;1.30;;;0.80;;
31112;SDS011;17763;48.730;9.136;2023-02-03T18:13:43;0.90;;;0.90;;
31112;SDS011;17763;48.730;9.136;2023-02-03T18:16:17;0.70;;;0.70;;